Time;durP1;ratioP1;P1;durP2;ratioP2;P2;SDS_P1;SDS_P2;PMS_P1;PMS_P2;Temp;Humidity;BMP_temperature;BMP_pressure;BME280_temperature;BME280_humidity;BME280_pressure;Samples;Min_cycle;Max_cycle;Signal;HPM_P1;HPM_P2
2022/08/18 00:00:27;;;;;;;17.30;5.93;;;19.20;99.90;;;;;;5013725;28;20463;-65
2022/08/18 00:02:54;;;;;;;16.05;6.50;;;19.10;99.90;;;;;;5013778;28;20050;-64
2022/08/18 00:05:20;;;;;;;16.70;6.28;;;19.10;99.90;;;;;;5014439;28;20054;-64
2022/08/18 00:07:46;;;;;;;19.27;6.05;;;19.10;99.90;;;;;;5013656;28;20057;-64
2022/08/18 00:10:11;;;;;;;16.83;6.40;;;19.00;99.90;;;;;;4997068;28;20065;-64
2022/08/18 00:12:42;;;;;;;13.70;5.60;;;19.00;99.90;;;;;;5013147;28;20054;-65
2022/08/18 00:15:11;;;;;;;16.73;6.03;;;19.00;99.90;;;;;;5014680;28;20061;-64
2022/08/18 00:17:37;;;;;;;17.77;6.05;;;19.00;99.90;;;;;;5014213;28;20389;-64
2022/08/18 00:20:05;;;;;;;15.15;5.65;;;19.00;99.90;;;;;;5014391;28;20042;-64
2022/08/18 00:22:31;;;;;;;16.98;6.25;;;19.00;99.90;;;;;;5014190;28;20115;-64
2022/08/18 00:24:57;;;;;;;13.80;5.80;;;18.90;99.90;;;;;;5013253;28;20038;-64
2022/08/18 00:27:26;;;;;;;17.48;6.47;;;18.90;99.90;;;;;;5014162;28;20371;-65
2022/08/18 00:29:54;;;;;;;15.70;6.72;;;18.90;99.90;;;;;;5013348;28;20141;-64
2022/08/18 00:32:23;;;;;;;17.95;6.35;;;18.90;99.90;;;;;;5013747;28;20050;-64
2022/08/18 00:34:49;;;;;;;17.25;6.28;;;18.90;99.90;;;;;;5013195;28;20112;-65
2022/08/18 00:37:15;;;;;;;12.75;6.47;;;18.90;99.90;;;;;;5014279;28;20050;-65
2022/08/18 00:39:41;;;;;;;15.70;6.93;;;18.90;99.90;;;;;;5013165;28;20064;-64
2022/08/18 00:42:19;;;;;;;23.45;7.10;;;18.80;99.90;;;;;;5012921;28;20403;-65
2022/08/18 00:44:45;;;;;;;15.60;6.18;;;18.80;99.90;;;;;;5014328;28;20046;-64
2022/08/18 00:47:11;;;;;;;17.40;7.03;;;18.80;99.90;;;;;;5012733;28;20081;-65
2022/08/18 00:49:39;;;;;;;13.02;6.35;;;18.80;99.90;;;;;;5012784;28;20396;-65
2022/08/18 00:52:06;;;;;;;16.65;6.75;;;18.80;99.90;;;;;;5014042;28;20450;-64
2022/08/18 00:54:33;;;;;;;17.38;6.70;;;18.80;99.90;;;;;;5012569;28;20049;-65
2022/08/18 00:57:05;;;;;;;19.17;7.55;;;18.80;99.90;;;;;;5012918;28;20045;-64
2022/08/18 00:59:33;;;;;;;23.30;7.70;;;18.80;99.90;;;;;;5013416;28;20046;-65
2022/08/18 01:02:02;;;;;;;19.42;7.00;;;18.80;99.90;;;;;;5012516;28;20105;-64
2022/08/18 01:04:35;;;;;;;16.00;7.28;;;18.80;99.90;;;;;;5012150;28;20056;-64
2022/08/18 01:07:07;;;;;;;20.02;7.53;;;18.90;99.90;;;;;;5013677;28;20360;-64
2022/08/18 01:09:32;;;;;;;15.07;7.18;;;18.90;99.90;;;;;;5012143;28;20046;-64
2022/08/18 01:11:58;;;;;;;18.10;8.23;;;18.90;99.90;;;;;;5013484;28;20058;-64
2022/08/18 01:14:24;;;;;;;18.85;7.38;;;18.90;99.90;;;;;;5013296;28;20391;-64
2022/08/18 01:22:48;;;;;;;22.42;8.48;;;18.80;99.90;;;;;;5012204;28;20443;-64
2022/08/18 01:28:02;;;;;;;21.45;7.57;;;18.80;99.90;;;;;;5013370;28;20272;-64
2022/08/18 01:30:29;;;;;;;17.73;7.47;;;18.80;99.90;;;;;;5011421;28;20133;-65
2022/08/18 01:32:56;;;;;;;23.63;8.15;;;18.80;99.90;;;;;;5013200;28;20050;-65
2022/08/18 01:35:24;;;;;;;22.38;7.70;;;18.80;99.90;;;;;;5012086;28;20050;-65
2022/08/18 01:37:52;;;;;;;19.52;7.90;;;18.80;99.90;;;;;;5012991;28;20148;-64
2022/08/18 01:40:20;;;;;;;21.92;8.32;;;18.80;99.90;;;;;;5011893;28;20072;-64
2022/08/18 01:42:46;;;;;;;16.15;7.75;;;18.80;99.90;;;;;;5011164;28;20052;-64
2022/08/18 01:45:14;;;;;;;19.58;8.52;;;18.80;99.90;;;;;;5012039;28;20391;-63
2022/08/18 01:47:40;;;;;;;18.10;8.90;;;18.80;99.90;;;;;;5010289;28;20054;-60
2022/08/18 01:50:07;;;;;;;19.63;8.43;;;18.90;99.90;;;;;;5012593;28;20056;-62
2022/08/18 01:52:34;;;;;;;20.90;8.07;;;18.90;99.90;;;;;;5012444;28;20052;-60
2022/08/18 01:55:00;;;;;;;20.92;9.32;;;18.90;99.90;;;;;;5012809;28;20094;-60
2022/08/18 01:57:26;;;;;;;22.20;10.00;;;18.90;99.90;;;;;;5012274;28;20144;-60
2022/08/18 01:59:52;;;;;;;18.48;8.98;;;18.90;99.90;;;;;;5010911;28;20081;-60
2022/08/18 02:02:25;;;;;;;18.88;8.40;;;18.90;99.90;;;;;;5012442;28;20050;-60
2022/08/18 02:04:53;;;;;;;22.63;9.05;;;18.90;99.90;;;;;;5012266;28;20049;-60
2022/08/18 02:07:19;;;;;;;18.67;8.40;;;18.90;99.90;;;;;;5011679;28;20464;-60
2022/08/18 02:09:45;;;;;;;20.45;9.02;;;18.90;99.90;;;;;;5012045;28;20038;-60
2022/08/18 02:12:11;;;;;;;19.23;8.65;;;18.90;99.90;;;;;;5012081;28;20132;-60
2022/08/18 02:14:38;;;;;;;27.92;8.95;;;18.90;99.90;;;;;;4994842;28;20057;-60
2022/08/18 02:17:06;;;;;;;24.92;9.18;;;18.90;99.90;;;;;;5011094;28;20049;-60
2022/08/18 02:19:39;;;;;;;18.08;9.80;;;19.00;99.90;;;;;;5011070;28;20064;-61
2022/08/18 02:22:08;;;;;;;20.77;9.20;;;19.00;99.90;;;;;;5011107;28;20403;-60
2022/08/18 02:24:34;;;;;;;18.85;8.82;;;19.00;99.90;;;;;;5011106;28;20060;-60
2022/08/18 02:27:00;;;;;;;22.25;9.13;;;19.00;99.90;;;;;;5011996;28;20050;-60
2022/08/18 02:29:25;;;;;;;19.40;8.30;;;19.00;99.90;;;;;;5010861;28;20056;-61
2022/08/18 02:31:52;;;;;;;20.80;8.35;;;19.00;99.90;;;;;;5011957;28;20259;-60
2022/08/18 02:34:18;;;;;;;18.60;8.52;;;19.00;99.90;;;;;;5012386;28;20042;-59
2022/08/18 02:36:44;;;;;;;20.85;8.48;;;19.00;99.90;;;;;;5011892;28;20161;-60
2022/08/18 02:39:10;;;;;;;24.45;8.23;;;19.00;99.90;;;;;;5011616;28;20050;-59
2022/08/18 02:41:35;;;;;;;18.20;8.68;;;18.90;99.90;;;;;;5011586;28;20072;-59
2022/08/18 02:44:02;;;;;;;19.27;8.00;;;18.90;99.90;;;;;;5010890;28;20050;-59
2022/08/18 02:46:27;;;;;;;21.15;8.45;;;18.90;99.90;;;;;;5011997;28;20462;-63
2022/08/18 02:48:54;;;;;;;17.95;7.35;;;18.90;99.90;;;;;;5011697;28;20125;-60
2022/08/18 02:51:20;;;;;;;17.88;8.00;;;18.90;99.90;;;;;;5011807;28;20384;-62
2022/08/18 02:53:46;;;;;;;22.30;7.95;;;18.90;99.90;;;;;;5011515;28;20056;-61
2022/08/18 02:56:23;;;;;;;17.13;7.78;;;18.90;99.90;;;;;;5010680;28;20081;-60
2022/08/18 02:58:53;;;;;;;23.17;8.82;;;19.00;99.90;;;;;;5010484;28;20046;-60
2022/08/18 03:01:20;;;;;;;18.20;8.55;;;19.00;99.90;;;;;;5010906;28;20058;-60
2022/08/18 03:03:47;;;;;;;21.98;8.05;;;19.00;99.90;;;;;;5011538;28;20057;-60
2022/08/18 03:06:12;;;;;;;20.80;8.00;;;19.00;99.90;;;;;;5011991;28;20457;-61
2022/08/18 03:08:38;;;;;;;19.73;8.15;;;19.00;99.90;;;;;;5012815;28;20042;-60
2022/08/18 03:11:04;;;;;;;22.20;8.20;;;19.00;99.90;;;;;;5015544;28;20050;-60
2022/08/18 03:13:30;;;;;;;17.85;8.18;;;19.00;99.90;;;;;;5015784;28;20054;-60
2022/08/18 03:15:56;;;;;;;17.90;7.57;;;19.00;99.90;;;;;;4998204;28;20054;-60
2022/08/18 03:18:22;;;;;;;19.67;8.10;;;19.00;99.90;;;;;;5015880;28;20052;-60
2022/08/18 03:20:49;;;;;;;16.80;7.65;;;19.00;99.90;;;;;;5015299;28;20073;-60
2022/08/18 03:23:15;;;;;;;18.95;7.88;;;19.00;99.90;;;;;;5016062;28;20089;-60
2022/08/18 03:25:47;;;;;;;19.48;8.27;;;19.00;99.90;;;;;;5015451;28;20054;-59
2022/08/18 03:28:14;;;;;;;16.40;8.45;;;19.00;99.90;;;;;;5015685;28;20060;-60
2022/08/18 03:30:39;;;;;;;17.50;7.90;;;19.00;99.90;;;;;;5015313;28;20500;-64
2022/08/18 03:33:05;;;;;;;20.45;7.63;;;19.00;99.90;;;;;;5015335;28;20089;-60
2022/08/18 03:35:34;;;;;;;13.07;7.95;;;19.00;99.90;;;;;;5015539;28;20494;-60
2022/08/18 03:38:00;;;;;;;17.63;9.05;;;19.00;99.90;;;;;;5015111;28;20133;-60
2022/08/18 03:40:25;;;;;;;21.70;8.60;;;19.00;99.90;;;;;;5015381;28;20129;-60
2022/08/18 03:42:51;;;;;;;20.15;7.55;;;19.00;99.90;;;;;;4997675;28;20116;-60
2022/08/18 03:45:18;;;;;;;21.48;8.68;;;19.00;99.90;;;;;;5015240;28;20053;-60
2022/08/18 03:47:44;;;;;;;19.02;8.13;;;19.00;99.90;;;;;;5015017;28;20049;-60
2022/08/18 03:50:11;;;;;;;16.08;7.90;;;19.00;99.90;;;;;;4997383;28;20050;-60
2022/08/18 03:52:37;;;;;;;15.15;8.13;;;19.00;99.90;;;;;;5015055;28;20160;-60
2022/08/18 03:55:04;;;;;;;15.60;7.55;;;19.00;99.90;;;;;;5013653;28;20046;-61
2022/08/18 03:57:31;;;;;;;19.55;8.27;;;19.00;99.90;;;;;;5013685;28;20487;-60
2022/08/18 03:59:57;;;;;;;14.73;7.78;;;19.00;99.90;;;;;;5014775;28;20042;-60
2022/08/18 04:02:23;;;;;;;19.25;8.15;;;19.00;99.90;;;;;;5015016;28;20060;-60
2022/08/18 04:04:49;;;;;;;17.67;7.70;;;19.00;99.90;;;;;;5014669;28;20050;-60
2022/08/18 04:07:16;;;;;;;14.43;7.45;;;19.00;99.90;;;;;;5014963;28;20045;-61
2022/08/18 04:09:43;;;;;;;19.85;7.55;;;19.00;99.90;;;;;;5013419;28;20057;-60
2022/08/18 04:12:12;;;;;;;18.80;8.07;;;19.00;99.90;;;;;;5013081;28;20141;-61
2022/08/18 04:14:42;;;;;;;17.83;7.53;;;19.00;99.90;;;;;;5014766;28;20050;-59
2022/08/18 04:17:08;;;;;;;14.20;7.38;;;19.00;99.90;;;;;;5013549;28;20054;-60
2022/08/18 04:19:35;;;;;;;13.27;7.15;;;19.00;99.90;;;;;;5014453;28;20085;-60
2022/08/18 04:22:04;;;;;;;15.55;7.90;;;19.00;99.90;;;;;;5013633;28;20057;-61
2022/08/18 04:24:31;;;;;;;16.92;7.28;;;19.00;99.90;;;;;;5014419;28;20459;-60
2022/08/18 04:26:59;;;;;;;15.90;7.00;;;19.00;99.90;;;;;;5014172;28;20438;-60
2022/08/18 04:29:27;;;;;;;11.00;6.95;;;19.00;99.90;;;;;;5013343;28;20046;-61
2022/08/18 04:31:53;;;;;;;16.33;7.25;;;19.00;99.90;;;;;;5012908;28;20054;-60
2022/08/18 04:34:21;;;;;;;16.55;7.03;;;19.00;99.90;;;;;;5013169;28;20318;-60
2022/08/18 04:36:48;;;;;;;15.05;7.20;;;19.00;99.90;;;;;;5014387;28;20133;-60
2022/08/18 04:39:14;;;;;;;16.13;8.00;;;19.00;99.90;;;;;;5014249;28;20377;-63
2022/08/18 04:41:42;;;;;;;16.02;8.40;;;19.10;99.90;;;;;;5014070;28;20087;-65
2022/08/18 04:44:10;;;;;;;14.30;7.70;;;19.00;99.90;;;;;;5014002;28;20045;-61
2022/08/18 04:46:42;;;;;;;16.60;8.00;;;19.00;99.90;;;;;;5014105;28;20423;-61
2022/08/18 04:49:09;;;;;;;12.45;7.85;;;19.00;99.90;;;;;;5013608;28;20052;-61
2022/08/18 04:51:38;;;;;;;17.08;8.50;;;19.00;99.90;;;;;;5012190;28;20046;-61
2022/08/18 04:54:04;;;;;;;15.05;8.40;;;19.00;99.90;;;;;;5013388;28;20054;-61
2022/08/18 04:56:33;;;;;;;16.92;7.50;;;19.10;99.90;;;;;;5012685;28;20490;-61
2022/08/18 04:59:09;;;;;;;17.52;8.32;;;19.10;99.90;;;;;;5013636;28;20053;-60
2022/08/18 05:01:42;;;;;;;18.30;7.60;;;19.00;99.90;;;;;;5013781;28;20053;-61
2022/08/18 05:04:08;;;;;;;16.00;7.63;;;19.10;99.90;;;;;;5011989;28;20507;-61
2022/08/18 05:06:34;;;;;;;15.00;8.05;;;19.00;99.90;;;;;;5013458;28;20045;-61
2022/08/18 05:09:03;;;;;;;15.32;7.63;;;19.00;99.90;;;;;;5013371;28;20049;-61
2022/08/18 05:11:33;;;;;;;12.95;7.35;;;19.00;99.90;;;;;;5013404;28;20133;-61
2022/08/18 05:14:04;;;;;;;17.00;7.00;;;19.00;99.90;;;;;;5012843;28;20089;-61
2022/08/18 05:16:35;;;;;;;12.23;7.32;;;19.00;99.90;;;;;;5013434;28;20145;-61
2022/08/18 05:19:06;;;;;;;15.65;8.00;;;19.00;99.90;;;;;;5013433;28;20372;-62
2022/08/18 05:21:32;;;;;;;14.70;7.43;;;19.00;99.90;;;;;;5013396;28;20458;-61
2022/08/18 05:23:59;;;;;;;13.05;7.28;;;19.00;99.90;;;;;;5012108;28;20091;-61
2022/08/18 05:26:26;;;;;;;15.75;7.93;;;19.00;99.90;;;;;;5013397;28;20056;-61
2022/08/18 05:28:52;;;;;;;19.35;7.63;;;19.00;99.90;;;;;;5013235;28;20126;-61
2022/08/18 05:31:22;;;;;;;16.65;8.00;;;19.00;99.90;;;;;;5012636;28;20100;-61
2022/08/18 05:33:49;;;;;;;18.90;8.25;;;19.10;99.90;;;;;;5012302;28;20380;-60
2022/08/18 05:36:47;;;;;;;17.45;7.47;;;19.00;99.90;;;;;;5012818;28;20096;-61
2022/08/18 05:39:22;;;;;;;19.20;7.85;;;19.10;99.90;;;;;;5007763;28;20535;-60
2022/08/18 05:42:12;;;;;;;14.07;6.70;;;19.10;99.90;;;;;;5012913;28;20049;-60
2022/08/18 05:44:46;;;;;;;21.20;7.03;;;19.10;99.90;;;;;;5012132;28;20058;-59
2022/08/18 05:47:17;;;;;;;16.63;7.65;;;19.10;99.90;;;;;;5012531;28;20057;-61
2022/08/18 05:49:47;;;;;;;19.23;6.95;;;19.10;99.90;;;;;;5012772;28;20490;-60
2022/08/18 05:52:48;;;;;;;14.75;6.60;;;19.20;99.90;;;;;;5012476;28;20058;-61
2022/08/18 05:58:30;;;;;;;14.55;6.90;;;19.20;99.90;;;;;;5012131;28;20089;-60
2022/08/18 06:01:00;;;;;;;17.75;7.10;;;19.20;99.90;;;;;;5011422;28;20054;-60
2022/08/18 06:03:47;;;;;;;14.27;6.43;;;19.30;99.90;;;;;;5012467;28;20133;-60
2022/08/18 06:06:20;;;;;;;17.17;6.55;;;19.40;99.90;;;;;;5012022;28;20049;-60
2022/08/18 06:08:54;;;;;;;15.18;6.38;;;19.40;99.90;;;;;;5012442;28;20072;-60
2022/08/18 06:11:20;;;;;;;14.93;6.97;;;19.50;99.90;;;;;;5012369;28;20085;-60
2022/08/18 06:13:46;;;;;;;11.70;6.22;;;19.50;99.90;;;;;;5012497;28;20096;-60
2022/08/18 06:16:43;;;;;;;15.25;7.00;;;19.50;99.90;;;;;;5012055;28;20053;-61
2022/08/18 06:19:18;;;;;;;14.35;7.43;;;19.60;99.90;;;;;;5003207;28;20145;-60
2022/08/18 06:21:55;;;;;;;13.48;6.95;;;19.60;99.90;;;;;;5012506;28;20050;-60
2022/08/18 06:24:40;;;;;;;12.70;7.43;;;19.50;99.90;;;;;;4994658;28;20081;-60
2022/08/18 06:27:46;;;;;;;15.02;6.38;;;19.50;99.90;;;;;;5012051;28;20068;-61
2022/08/18 06:30:20;;;;;;;13.85;5.72;;;19.40;99.90;;;;;;5011827;28;20091;-60
2022/08/18 06:32:58;;;;;;;14.18;5.07;;;19.40;99.90;;;;;;5011240;28;20050;-61
2022/08/18 06:35:49;;;;;;;10.60;4.68;;;19.30;99.90;;;;;;5011476;28;20361;-61
2022/08/18 06:41:00;;;;;;;12.25;4.03;;;19.30;99.90;;;;;;5012087;28;20129;-61
2022/08/18 06:43:28;;;;;;;15.18;4.57;;;19.30;99.90;;;;;;5011283;28;20112;-61
2022/08/18 06:45:53;;;;;;;18.65;5.05;;;19.30;99.90;;;;;;5012041;28;20045;-60
2022/08/18 06:48:23;;;;;;;13.43;4.60;;;19.30;99.90;;;;;;5011739;28;20044;-61
2022/08/18 06:50:56;;;;;;;14.48;4.78;;;19.30;99.90;;;;;;5010789;28;20092;-60
2022/08/18 06:53:48;;;;;;;14.20;4.32;;;19.30;99.90;;;;;;5011670;28;20085;-61
2022/08/18 06:56:31;;;;;;;16.33;4.93;;;19.30;99.90;;;;;;5011721;28;20049;-61
2022/08/18 06:59:14;;;;;;;11.90;4.20;;;19.30;99.90;;;;;;5011797;28;20050;-61
2022/08/18 07:01:42;;;;;;;13.77;4.53;;;19.30;99.90;;;;;;5012074;28;20046;-60
2022/08/18 07:04:08;;;;;;;15.23;4.47;;;19.20;99.90;;;;;;5011749;28;20065;-60
2022/08/18 07:06:34;;;;;;;10.98;3.88;;;19.20;99.90;;;;;;5012032;28;20058;-60
2022/08/18 07:09:33;;;;;;;14.45;4.38;;;19.20;99.90;;;;;;5010575;28;20073;-62
2022/08/18 07:12:05;;;;;;;15.82;4.25;;;19.20;99.90;;;;;;5010547;28;20464;-60
2022/08/18 07:14:40;;;;;;;13.32;4.53;;;19.20;99.90;;;;;;5009455;28;20054;-61
2022/08/18 07:17:12;;;;;;;13.93;5.00;;;19.20;99.90;;;;;;5010633;28;20404;-60
2022/08/18 07:19:39;;;;;;;11.98;4.03;;;19.20;99.90;;;;;;5011449;28;20558;-60
2022/08/18 07:22:14;;;;;;;16.02;4.28;;;19.20;99.90;;;;;;5011545;28;20446;-60
2022/08/18 07:24:43;;;;;;;14.40;4.18;;;19.10;99.90;;;;;;5011557;28;20104;-62
2022/08/18 07:27:21;;;;;;;10.75;4.10;;;19.20;99.90;;;;;;5011777;28;20049;-61
2022/08/18 07:30:10;;;;;;;13.07;4.18;;;19.20;99.90;;;;;;5011689;28;20038;-60
2022/08/18 07:33:03;;;;;;;12.95;4.57;;;19.20;99.90;;;;;;5011099;28;20046;-60
2022/08/18 07:35:37;;;;;;;16.55;4.45;;;19.20;99.90;;;;;;4983256;28;20057;-61
2022/08/18 07:38:16;;;;;;;13.02;4.15;;;19.20;99.90;;;;;;5011837;28;20396;-61
2022/08/18 07:41:01;;;;;;;10.63;3.88;;;19.30;99.90;;;;;;5010182;28;20103;-61
2022/08/18 07:43:50;;;;;;;10.23;4.00;;;19.30;99.90;;;;;;5011411;28;20141;-60
2022/08/18 07:46:23;;;;;;;12.18;3.90;;;19.40;99.90;;;;;;5001357;28;20128;-61
2022/08/18 07:48:49;;;;;;;11.80;3.38;;;19.40;99.90;;;;;;5011573;28;20392;-60
2022/08/18 07:51:49;;;;;;;12.55;3.97;;;19.40;99.90;;;;;;5011239;28;20132;-61
2022/08/18 07:54:15;;;;;;;10.23;3.40;;;19.40;99.90;;;;;;5011344;28;20446;-62
2022/08/18 07:56:56;;;;;;;11.73;3.65;;;19.50;99.90;;;;;;5014111;28;20045;-61
2022/08/18 07:59:36;;;;;;;8.43;3.33;;;19.50;99.90;;;;;;5015003;28;20121;-60
2022/08/18 08:02:21;;;;;;;6.15;2.83;;;19.70;99.90;;;;;;5015082;28;20372;-60
2022/08/18 08:04:59;;;;;;;7.50;2.45;;;19.80;99.90;;;;;;5013944;28;20072;-60
2022/08/18 08:07:29;;;;;;;8.02;2.92;;;19.80;99.90;;;;;;5014825;28;20049;-60
2022/08/18 08:10:28;;;;;;;8.80;3.30;;;19.90;99.90;;;;;;5015044;28;20135;-60
2022/08/18 08:13:19;;;;;;;8.60;2.63;;;19.90;99.90;;;;;;5014665;28;20196;-60
2022/08/18 08:16:02;;;;;;;6.50;2.47;;;20.00;99.90;;;;;;5015027;28;20050;-60
2022/08/18 08:18:39;;;;;;;5.30;2.47;;;20.00;99.90;;;;;;5014665;28;20053;-59
2022/08/18 08:21:19;;;;;;;6.60;2.50;;;20.20;99.90;;;;;;5014154;28;20495;-64
2022/08/18 08:24:14;;;;;;;5.45;2.17;;;20.20;99.90;;;;;;5012253;28;20057;-59
2022/08/18 08:26:59;;;;;;;6.88;1.70;;;20.20;99.90;;;;;;5013611;28;20058;-60
2022/08/18 08:29:33;;;;;;;;;;;20.20;99.90;;;;;;5014514;28;20108;-60
2022/08/18 08:32:02;;;;;;;;;;;20.10;99.90;;;;;;5014908;28;19921;-62
2022/08/18 08:34:47;;;;;;;6.78;2.05;;;20.10;99.90;;;;;;5012682;28;20008;-61
2022/08/18 08:37:18;;;;;;;7.38;2.50;;;20.10;99.90;;;;;;5012946;28;20141;-62
2022/08/18 08:39:52;;;;;;;6.07;2.28;;;20.00;99.90;;;;;;5014153;28;20053;-62
2022/08/18 08:42:59;;;;;;;7.22;2.38;;;20.10;99.90;;;;;;5014412;28;20060;-62
2022/08/18 08:45:29;;;;;;;6.63;1.95;;;20.10;99.90;;;;;;4947934;29;20544;-62
2022/08/18 08:48:16;;;;;;;6.10;2.45;;;20.10;99.90;;;;;;4949097;29;20125;-59
2022/08/18 08:51:09;;;;;;;6.60;2.33;;;20.20;99.90;;;;;;4980022;28;20132;-60
2022/08/18 08:53:44;;;;;;;4.15;2.00;;;20.20;99.90;;;;;;5009776;28;20207;-63
2022/08/18 08:56:14;;;;;;;7.25;2.28;;;20.20;99.90;;;;;;5007771;28;20198;-62
2022/08/18 08:58:49;;;;;;;10.13;2.42;;;20.30;99.90;;;;;;5009532;28;20054;-60
2022/08/18 09:01:47;;;;;;;6.28;2.25;;;20.20;99.90;;;;;;5009720;28;20547;-60
2022/08/18 09:04:25;;;;;;;6.82;2.20;;;20.20;99.90;;;;;;5012875;28;20046;-62
2022/08/18 09:07:37;;;;;;;7.10;2.60;;;20.30;99.90;;;;;;5011299;28;20049;-60
2022/08/18 09:10:17;;;;;;;7.70;2.60;;;20.40;99.90;;;;;;5011205;28;20042;-61
2022/08/18 09:12:55;;;;;;;6.93;2.30;;;20.50;99.90;;;;;;5012769;28;20266;-61
2022/08/18 09:15:32;;;;;;;7.80;2.25;;;20.50;99.90;;;;;;5013504;28;20403;-60
2022/08/18 09:18:21;;;;;;;7.07;2.55;;;20.50;99.90;;;;;;5013459;28;20459;-60
2022/08/18 09:21:00;;;;;;;6.32;2.72;;;20.50;99.90;;;;;;5012478;28;20042;-60
2022/08/18 09:23:38;;;;;;;6.28;2.40;;;20.50;99.90;;;;;;5012729;28;20133;-66
2022/08/18 09:26:38;;;;;;;5.35;2.80;;;20.50;99.90;;;;;;5013297;28;20190;-64
2022/08/18 09:29:17;;;;;;;6.43;2.00;;;20.40;99.90;;;;;;5012563;28;20085;-60
2022/08/18 09:31:45;;;;;;;6.53;2.30;;;20.50;99.90;;;;;;5011007;28;20050;-61
2022/08/18 09:34:41;;;;;;;5.55;2.03;;;20.50;99.90;;;;;;5012398;28;20049;-62
2022/08/18 09:37:38;;;;;;;5.05;2.20;;;20.50;99.90;;;;;;4994697;28;20427;-62
2022/08/18 09:43:16;;;;;;;4.97;1.77;;;21.80;99.90;;;;;;5012780;28;20060;-62
2022/08/18 09:45:58;;;;;;;3.15;1.67;;;22.20;99.90;;;;;;5012510;28;20062;-61
2022/08/18 09:48:33;;;;;;;7.60;2.17;;;22.40;99.90;;;;;;5011354;28;20054;-61
2022/08/18 09:51:30;;;;;;;4.07;1.80;;;22.40;99.90;;;;;;5010831;28;20042;-62
2022/08/18 09:54:12;;;;;;;6.20;2.13;;;22.30;99.90;;;;;;5012523;28;20415;-61
2022/08/18 09:56:49;;;;;;;4.32;1.90;;;22.20;99.90;;;;;;5011136;28;20061;-62
2022/08/18 09:59:33;;;;;;;5.50;1.70;;;22.20;99.90;;;;;;5012749;28;20069;-62
2022/08/18 10:02:00;;;;;;;8.68;1.90;;;22.20;99.90;;;;;;5009439;28;20427;-62
2022/08/18 10:04:26;;;;;;;5.63;1.98;;;22.20;99.90;;;;;;5010036;28;20426;-62
2022/08/18 10:06:52;;;;;;;4.15;1.83;;;22.20;99.90;;;;;;5012019;28;20053;-61
2022/08/18 10:09:28;;;;;;;3.83;1.60;;;22.20;99.90;;;;;;5012362;28;20054;-62
2022/08/18 10:12:05;;;;;;;4.95;1.80;;;22.00;99.90;;;;;;5009139;28;20076;-62
2022/08/18 10:14:46;;;;;;;4.13;1.80;;;22.00;99.90;;;;;;5011734;28;20046;-66
2022/08/18 10:17:27;;;;;;;4.13;1.70;;;21.90;99.90;;;;;;5011198;28;20459;-63
2022/08/18 10:20:00;;;;;;;4.80;1.92;;;21.90;99.90;;;;;;5011686;28;20052;-62
2022/08/18 10:22:40;;;;;;;5.35;2.00;;;21.90;99.90;;;;;;5012498;28;20038;-61
2022/08/18 10:25:10;;;;;;;9.65;2.15;;;21.90;99.90;;;;;;5012243;28;20129;-63
2022/08/18 10:27:44;;;;;;;5.63;2.20;;;21.70;99.90;;;;;;5012302;28;20104;-63
2022/08/18 10:30:32;;;;;;;4.72;2.00;;;21.60;99.90;;;;;;5011823;28;20499;-61
2022/08/18 10:32:59;;;;;;;4.95;1.83;;;21.70;99.90;;;;;;5012264;28;20053;-62
2022/08/18 10:35:34;;;;;;;5.47;2.13;;;21.70;99.90;;;;;;5012113;28;20188;-61
2022/08/18 10:38:04;;;;;;;7.25;2.58;;;21.70;99.90;;;;;;5012284;28;20049;-61
2022/08/18 10:40:31;;;;;;;5.80;1.92;;;21.70;99.90;;;;;;5012177;28;20140;-61
2022/08/18 10:43:15;;;;;;;7.05;1.90;;;21.70;99.90;;;;;;5008790;28;20042;-61
2022/08/18 10:45:47;;;;;;;5.15;2.03;;;21.60;99.90;;;;;;4992243;28;20069;-61
2022/08/18 10:48:29;;;;;;;5.47;2.00;;;21.60;99.90;;;;;;4994653;28;20050;-61
2022/08/18 10:51:10;;;;;;;7.75;2.30;;;21.50;99.90;;;;;;5011587;28;20637;-61
2022/08/18 10:53:53;;;;;;;6.47;2.30;;;21.50;99.90;;;;;;5012215;28;20394;-64
2022/08/18 10:56:32;;;;;;;8.23;1.85;;;21.50;99.90;;;;;;5008446;28;20493;-61
2022/08/18 10:58:57;;;;;;;4.88;2.08;;;21.50;99.90;;;;;;5007598;28;20436;-62
2022/08/18 11:01:35;;;;;;;3.75;2.00;;;21.50;99.90;;;;;;5008791;28;20095;-61
2022/08/18 11:04:28;;;;;;;4.70;2.20;;;21.50;99.90;;;;;;5011799;28;20056;-61
2022/08/18 11:07:11;;;;;;;4.72;1.83;;;21.40;99.90;;;;;;5011307;28;20100;-61
2022/08/18 11:09:38;;;;;;;4.80;2.10;;;21.30;99.90;;;;;;5011512;28;20053;-64
2022/08/18 11:12:05;;;;;;;4.90;2.22;;;21.30;99.90;;;;;;5011776;28;20108;-61
2022/08/18 11:14:52;;;;;;;3.88;2.03;;;21.30;99.90;;;;;;5011879;28;20052;-61
2022/08/18 11:17:50;;;;;;;4.50;2.00;;;21.30;99.90;;;;;;5011734;28;20056;-61
2022/08/18 11:20:19;;;;;;;6.57;2.28;;;21.40;99.90;;;;;;5010838;28;20477;-60
2022/08/18 11:22:52;;;;;;;3.55;2.05;;;21.30;99.90;;;;;;5011288;28;20049;-64
2022/08/18 11:25:30;;;;;;;4.45;2.10;;;21.30;99.90;;;;;;5011852;28;20046;-61
2022/08/18 11:27:57;;;;;;;3.28;2.10;;;21.30;99.90;;;;;;5011180;28;20046;-61
2022/08/18 11:30:30;;;;;;;6.60;2.17;;;21.30;99.90;;;;;;5012059;28;20076;-62
2022/08/18 11:32:57;;;;;;;6.20;2.20;;;21.40;99.90;;;;;;5013841;28;20626;-62
2022/08/18 11:35:33;;;;;;;6.88;2.53;;;21.40;99.90;;;;;;5014083;28;20042;-61
2022/08/18 11:38:10;;;;;;;8.95;2.45;;;21.50;99.90;;;;;;5015054;28;20124;-60
2022/08/18 11:40:53;;;;;;;5.35;2.60;;;21.70;99.90;;;;;;5015119;28;20049;-61
2022/08/18 11:43:32;;;;;;;9.20;2.40;;;21.90;99.90;;;;;;5014106;28;20158;-60
2022/08/18 11:46:10;;;;;;;4.82;1.75;;;22.10;99.90;;;;;;5014489;28;20064;-60
2022/08/18 11:48:43;;;;;;;5.68;2.10;;;22.10;99.90;;;;;;5014975;28;20552;-60
2022/08/18 11:51:27;;;;;;;5.25;2.53;;;22.30;99.90;;;;;;5015128;28;20048;-61
2022/08/18 11:53:58;;;;;;;6.78;2.30;;;22.40;99.90;;;;;;5013661;28;20078;-61
2022/08/18 11:56:30;;;;;;;7.13;2.70;;;22.40;99.90;;;;;;5014813;28;20124;-62
2022/08/18 11:59:02;;;;;;;5.20;2.50;;;22.50;99.90;;;;;;5009821;28;20093;-62
2022/08/18 12:01:43;;;;;;;6.07;2.40;;;22.50;99.90;;;;;;5014848;28;20041;-61
2022/08/18 12:04:12;;;;;;;6.13;2.10;;;22.60;99.90;;;;;;5013742;28;20119;-61
2022/08/18 12:06:54;;;;;;;5.45;2.70;;;22.50;99.90;;;;;;5009167;28;20068;-63
2022/08/18 12:09:45;;;;;;;4.57;1.90;;;22.40;99.90;;;;;;5012825;28;20060;-62
2022/08/18 12:12:29;;;;;;;5.03;2.00;;;22.40;99.90;;;;;;5014304;28;20053;-61
2022/08/18 12:14:57;;;;;;;5.28;2.00;;;22.40;99.90;;;;;;5014551;28;20103;-61
2022/08/18 12:17:23;;;;;;;4.13;1.88;;;22.40;99.90;;;;;;5011022;28;20046;-62
2022/08/18 12:19:49;;;;;;;5.47;1.98;;;22.60;99.90;;;;;;5013709;28;20074;-61
2022/08/18 12:22:17;;;;;;;4.47;1.77;;;22.70;99.90;;;;;;5014017;28;20049;-61
2022/08/18 12:24:45;;;;;;;3.92;1.80;;;22.70;99.90;;;;;;5014053;28;20072;-62
2022/08/18 12:27:14;;;;;;;4.43;2.00;;;22.70;99.90;;;;;;4996628;28;20430;-61
2022/08/18 12:29:40;;;;;;;6.22;2.17;;;22.60;99.90;;;;;;5013525;28;20073;-61
2022/08/18 12:32:06;;;;;;;3.72;1.65;;;22.60;99.90;;;;;;5010331;28;20088;-61
2022/08/18 12:34:32;;;;;;;4.78;2.08;;;22.60;99.90;;;;;;5013033;28;20089;-61
2022/08/18 12:37:02;;;;;;;3.25;1.98;;;22.50;99.90;;;;;;5006290;28;20050;-61
2022/08/18 12:39:31;;;;;;;5.00;1.95;;;22.60;99.90;;;;;;5013687;28;20050;-62
2022/08/18 12:41:57;;;;;;;3.80;1.80;;;22.70;99.90;;;;;;5011206;28;20061;-61
2022/08/18 12:44:24;;;;;;;4.00;1.77;;;22.70;99.90;;;;;;5010242;28;20046;-61
2022/08/18 12:46:50;;;;;;;7.20;2.20;;;22.70;99.90;;;;;;5010634;28;20462;-62
2022/08/18 12:49:19;;;;;;;3.67;1.80;;;22.70;99.90;;;;;;5012660;28;20060;-64
2022/08/18 12:51:46;;;;;;;5.05;2.03;;;22.70;99.90;;;;;;5010429;28;20247;-63
2022/08/18 12:54:12;;;;;;;5.32;1.98;;;22.80;99.90;;;;;;5010664;28;20096;-61
2022/08/18 12:56:39;;;;;;;3.55;1.75;;;22.80;99.90;;;;;;5012083;28;20053;-61
2022/08/18 12:59:07;;;;;;;4.47;2.00;;;22.80;99.90;;;;;;5011325;28;20132;-61
2022/08/18 13:01:35;;;;;;;2.80;1.70;;;22.90;99.90;;;;;;5007833;28;20697;-62
2022/08/18 13:04:02;;;;;;;5.65;2.00;;;23.00;99.90;;;;;;5008591;28;20060;-61
2022/08/18 13:06:28;;;;;;;3.58;2.13;;;23.10;99.90;;;;;;5012944;28;20524;-61
2022/08/18 13:08:54;;;;;;;4.78;2.08;;;23.20;99.90;;;;;;5010319;28;20049;-61
2022/08/18 13:11:22;;;;;;;3.05;1.67;;;23.30;99.90;;;;;;5009555;28;20064;-61
2022/08/18 13:13:49;;;;;;;2.78;1.77;;;23.20;99.90;;;;;;5010781;28;20064;-61
2022/08/18 13:16:16;;;;;;;4.75;1.95;;;23.10;99.90;;;;;;5011807;28;20507;-62
2022/08/18 13:18:42;;;;;;;4.20;2.13;;;23.10;99.90;;;;;;5012274;28;20080;-60
2022/08/18 13:21:11;;;;;;;2.70;1.77;;;23.00;99.90;;;;;;5008769;28;20050;-61
2022/08/18 13:23:37;;;;;;;2.78;1.73;;;23.00;99.90;;;;;;5008720;28;20515;-62
2022/08/18 13:26:05;;;;;;;4.03;1.95;;;23.10;99.90;;;;;;5012582;28;20053;-61